| time (UTC) | temp C | wind direction | speed KPH | gust KPH | rain 1hr cm | rain 24hr cm | rain mn cm | humidity % | barometer mb |
| 20260509224549 | 30 | 185 | 6.4 | 12.9 | 0.00 | 0.00 | 0.00 | 47 | 1006.1 |
| 20260509223038 | 30 | 170 | 3.2 | 12.9 | 0.00 | 0.00 | 0.00 | 45 | 1006.1 |
| 20260509221554 | 30 | 147 | 6.4 | 14.5 | 0.00 | 0.00 | 0.00 | 45 | 1006.1 |
| 20260509220036 | 31 | 174 | 1.6 | 8.0 | 0.00 | 0.00 | 0.00 | 47 | 1006.1 |
| 20260509214534 | 31 | 197 | 1.6 | 9.7 | 0.00 | 0.00 | 0.00 | 44 | 1006.1 |
| 20260509213034 | 30 | 141 | 4.8 | 14.5 | 0.00 | 0.00 | 0.00 | 45 | 1006.3 |
| 20260509211532 | 31 | 139 | 3.2 | 12.9 | 0.00 | 0.00 | 0.00 | 44 | 1006.5 |
| 20260509210032 | 31 | 152 | 1.6 | 4.8 | 0.00 | 0.00 | 0.00 | 42 | 1006.7 |
| 20260509204529 | 30 | 164 | 3.2 | 11.3 | 0.00 | 0.00 | 0.00 | 44 | 1007.0 |
| 20260509203031 | 30 | 138 | 8.0 | 11.3 | 0.00 | 0.00 | 0.00 | 44 | 1007.2 |
| 20260509201529 | 30 | 123 | 9.7 | 14.5 | 0.00 | 0.00 | 0.00 | 44 | 1007.3 |
| 20260509200028 | 30 | 163 | 3.2 | 11.3 | 0.00 | 0.00 | 0.00 | 42 | 1007.4 |
| 20260509194524 | 30 | 138 | 0.0 | 6.4 | 0.00 | 0.00 | 0.00 | 44 | 1007.5 |
| 20260509193024 | 30 | 85 | 4.8 | 12.9 | 0.00 | 0.00 | 0.00 | 46 | 1007.7 |
| 20260509191523 | 30 | 138 | 3.2 | 8.0 | 0.00 | 0.00 | 0.00 | 48 | 1007.9 |
| 20260509190021 | 29 | 211 | 3.2 | 12.9 | 0.00 | 0.00 | 0.00 | 47 | 1008.1 |
| 20260509184526 | 29 | 62 | 1.6 | 8.0 | 0.00 | 0.00 | 0.00 | 49 | 1008.2 |
| 20260509183018 | 28 | 88 | 3.2 | 9.7 | 0.00 | 0.00 | 0.00 | 50 | 1008.3 |
| 20260509181514 | 28 | 110 | 0.0 | 4.8 | 0.00 | 0.00 | 0.00 | 53 | 1008.4 |
| 20260509180014 | 28 | 100 | 4.8 | 9.7 | 0.00 | 0.00 | 0.00 | 55 | 1008.5 |
| 20260509174513 | 27 | 84 | 1.6 | 12.9 | 0.00 | 0.00 | 0.00 | 59 | 1008.8 |
| 20260509173013 | 28 | 93 | 3.2 | 9.7 | 0.00 | 0.00 | 0.00 | 57 | 1008.9 |
| 20260509171522 | 27 | 73 | 0.0 | 8.0 | 0.00 | 0.00 | 0.00 | 57 | 1009.0 |
| 20260509170024 | 27 | 64 | 1.6 | 6.4 | 0.00 | 0.00 | 0.00 | 59 | 1009.1 |
| 20260509164507 | 27 | 332 | 0.0 | 6.4 | 0.00 | 0.00 | 0.00 | 59 | 1009.3 |
| 20260509163008 | 27 | 305 | 1.6 | 9.7 | 0.00 | 0.00 | 0.00 | 60 | 1009.4 |
| 20260509161504 | 26 | 310 | 1.6 | 6.4 | 0.00 | 0.00 | 0.00 | 61 | 1009.5 |
| 20260509160002 | 25 | 293 | 0.0 | 9.7 | 0.00 | 0.00 | 0.00 | 67 | 1009.7 |
| 20260509154603 | 25 | 256 | 1.6 | 9.7 | 0.00 | 0.00 | 0.00 | 65 | 1009.7 |
| 20260509153102 | 24 | 270 | 3.2 | 12.9 | 0.00 | 0.00 | 0.00 | 65 | 1009.8 |
| 20260509151603 | 24 | 296 | 1.6 | 6.4 | 0.00 | 0.00 | 0.00 | 65 | 1009.7 |
| 20260509151501 | 24 | 294 | 1.6 | 6.4 | 0.00 | 0.00 | 0.00 | 66 | 1009.7 |
| 20260509150059 | 23 | 270 | 0.0 | 9.7 | 0.00 | 0.00 | 0.00 | 69 | 1009.7 |
| 20260509144559 | 23 | 261 | 1.6 | 6.4 | 0.00 | 0.00 | 0.00 | 67 | 1009.9 |
| 20260509143058 | 23 | 263 | 0.0 | 9.7 | 0.00 | 0.00 | 0.00 | 68 | 1010.0 |
| 20260509141558 | 23 | 249 | 0.0 | 8.0 | 0.00 | 0.00 | 0.00 | 70 | 1010.0 |
| 20260509140104 | 23 | 318 | 0.0 | 3.2 | 0.00 | 0.00 | 0.00 | 70 | 1010.0 |
| 20260509134626 | 22 | 318 | 0.0 | 6.4 | 0.00 | 0.00 | 0.00 | 71 | 1009.8 |
| 20260509133059 | 21 | 266 | 1.6 | 4.8 | 0.00 | 0.00 | 0.00 | 78 | 1009.9 |
| 20260509131556 | 20 | 264 | 0.0 | 3.2 | 0.00 | 0.00 | 0.00 | 81 | 1009.9 |
| 20260509130055 | 19 | 264 | 0.0 | 0.0 | 0.00 | 0.00 | 0.00 | 84 | 1010.0 |
| 20260509124555 | 18 | 264 | 0.0 | 1.6 | 0.00 | 0.03 | 0.00 | 86 | 1009.9 |
| 20260509123055 | 17 | 264 | 0.0 | 0.0 | 0.00 | 0.03 | 0.00 | 87 | 1009.7 |
| 20260509121556 | 17 | 264 | 0.0 | 0.0 | 0.00 | 0.03 | 0.00 | 88 | 1009.4 |
| 20260509120056 | 16 | 264 | 0.0 | 1.6 | 0.00 | 0.03 | 0.00 | 88 | 1009.2 |
| 20260509114554 | 16 | 264 | 0.0 | 0.0 | 0.00 | 0.03 | 0.00 | 87 | 1009.0 |
| 20260509113053 | 17 | 264 | 0.0 | 3.2 | 0.00 | 0.03 | 0.00 | 87 | 1008.8 |
| 20260509111547 | 17 | 264 | 0.0 | 1.6 | 0.00 | 0.03 | 0.00 | 86 | 1008.9 |
| 20260509110045 | 18 | 264 | 0.0 | 0.0 | 0.00 | 0.03 | 0.00 | 84 | 1008.7 |
| 20260509104544 | 18 | 264 | 0.0 | 1.6 | 0.00 | 0.05 | 0.00 | 84 | 1008.9 |
| 20260509103043 | 18 | 264 | 0.0 | 12.9 | 0.00 | 0.05 | 0.00 | 85 | 1008.9 |
| 20260509101550 | 18 | 246 | 6.4 | 11.3 | 0.00 | 0.05 | 0.00 | 85 | 1009.0 |
| 20260509100039 | 18 | 104 | 0.0 | 0.0 | 0.00 | 0.05 | 0.00 | 84 | 1008.2 |
| 20260509094538 | 19 | 104 | 0.0 | 4.8 | 0.00 | 0.18 | 0.00 | 83 | 1007.6 |
| 20260509093036 | 19 | 45 | 1.6 | 11.3 | 0.00 | 0.18 | 0.00 | 82 | 1007.0 |
| 20260509091534 | 19 | 56 | 3.2 | 9.7 | 0.00 | 0.18 | 0.00 | 81 | 1006.7 |
| 20260509090034 | 20 | 77 | 3.2 | 12.9 | 0.00 | 0.18 | 0.00 | 81 | 1006.3 |
| 20260509084532 | 20 | 83 | 1.6 | 8.0 | 0.00 | 0.18 | 0.00 | 79 | 1006.1 |
| 20260509083041 | 20 | 55 | 3.2 | 19.3 | 0.00 | 0.18 | 0.00 | 76 | 1006.1 |
| 20260509081534 | 22 | 100 | 1.6 | 16.1 | 0.00 | 0.18 | 0.00 | 67 | 1006.1 |
| 20260509080034 | 23 | 73 | 6.4 | 17.7 | 0.00 | 0.18 | 0.00 | 58 | 1006.3 |
| 20260509074530 | 24 | 34 | 0.0 | 22.5 | 0.00 | 0.18 | 0.00 | 57 | 1006.3 |
| 20260509073028 | 24 | 192 | 9.7 | 38.6 | 0.00 | 0.18 | 0.00 | 48 | 1005.5 |
| 20260509071525 | 21 | 58 | 3.2 | 24.1 | 0.00 | 0.18 | 0.00 | 80 | 1006.4 |
| 20260509070025 | 23 | 256 | 8.0 | 22.5 | 0.00 | 0.18 | 0.00 | 66 | 1007.5 |
| 20260509064520 | 21 | 186 | 12.9 | 25.7 | 0.00 | 0.18 | 0.00 | 85 | 1008.1 |
| 20260509063018 | 20 | 213 | 8.0 | 11.3 | 0.00 | 0.18 | 0.00 | 87 | 1008.6 |
| 20260509061513 | 20 | 213 | 8.0 | 17.7 | 0.00 | 0.18 | 0.00 | 88 | 1008.9 |
| 20260509060010 | 20 | 215 | 9.7 | 16.1 | 0.00 | 0.18 | 0.00 | 88 | 1009.4 |
| 20260509054508 | 20 | 238 | 8.0 | 12.9 | 0.00 | 0.18 | 0.00 | 89 | 1010.1 |
| 20260509053007 | 20 | 260 | 1.6 | 8.0 | 0.00 | 0.18 | 0.00 | 89 | 1010.5 |
| 20260509051503 | 20 | 265 | 0.0 | 8.0 | 0.00 | 0.18 | 0.00 | 87 | 1010.1 |
| 20260509050108 | 20 | 212 | 3.2 | 6.4 | 0.00 | 0.18 | 0.00 | 87 | 1009.8 |
| 20260509044600 | 20 | 90 | 0.0 | 4.8 | 0.00 | 0.18 | 0.18 | 88 | 1010.9 |
| 20260509044504 | 20 | 87 | 0.0 | 4.8 | 0.00 | 0.18 | 0.18 | 88 | 1011.0 |
| 20260509043106 | 20 | 87 | 3.2 | 9.7 | 0.00 | 0.18 | 0.18 | 89 | 1010.9 |
| 20260509041700 | 20 | 41 | 1.6 | 14.5 | 0.00 | 0.18 | 0.18 | 89 | 1010.3 |
| 20260509040058 | 20 | 148 | 1.6 | 4.8 | 0.00 | 0.18 | 0.18 | 88 | 1008.8 |
| 20260509034559 | 20 | 144 | 0.0 | 3.2 | 0.00 | 0.18 | 0.18 | 88 | 1008.5 |
| 20260509033100 | 20 | 127 | 4.8 | 9.7 | 0.00 | 0.18 | 0.18 | 87 | 1008.5 |
| 20260509031659 | 20 | 116 | 4.8 | 11.3 | 0.00 | 0.18 | 0.18 | 87 | 1008.4 |
| 20260509030057 | 20 | 125 | 6.4 | 14.5 | 0.00 | 0.18 | 0.18 | 87 | 1008.3 |
| 20260509024556 | 20 | 108 | 6.4 | 11.3 | 0.00 | 0.18 | 0.18 | 86 | 1007.8 |
| 20260509023055 | 20 | 160 | 3.2 | 6.4 | 0.00 | 0.18 | 0.18 | 86 | 1007.3 |
| 20260509021656 | 21 | 165 | 0.0 | 8.0 | 0.00 | 0.18 | 0.18 | 85 | 1007.0 |
| 20260509020054 | 21 | 151 | 3.2 | 9.7 | 0.00 | 0.18 | 0.18 | 84 | 1006.1 |
| 20260509014556 | 21 | 181 | 6.4 | 19.3 | 0.00 | 0.18 | 0.18 | 84 | 1005.9 |
| 20260509013056 | 21 | 166 | 6.4 | 11.3 | 0.00 | 0.18 | 0.18 | 82 | 1005.9 |
| 20260509011653 | 21 | 171 | 3.2 | 9.7 | 0.00 | 0.18 | 0.18 | 81 | 1006.3 |
| 20260509010051 | 22 | 151 | 3.2 | 9.7 | 0.00 | 0.18 | 0.18 | 79 | 1006.5 |
| 20260509004606 | 22 | 178 | 3.2 | 8.0 | 0.00 | 0.18 | 0.18 | 77 | 1006.6 |
| 20260509003051 | 22 | 153 | 3.2 | 14.5 | 0.00 | 0.18 | 0.18 | 76 | 1006.6 |
| 20260509001553 | 23 | 154 | 6.4 | 16.1 | 0.00 | 0.18 | 0.18 | 75 | 1006.5 |
| 20260509000051 | 23 | 183 | 6.4 | 16.1 | 0.00 | 0.18 | 0.18 | 75 | 1006.3 |
| 20260508234547 | 23 | 181 | 6.4 | 16.1 | 0.00 | 0.18 | 0.18 | 72 | 1006.3 |
| 20260508233046 | 23 | 177 | 6.4 | 16.1 | 0.00 | 0.18 | 0.18 | 72 | 1006.6 |
| 20260508231545 | 23 | 156 | 9.7 | 19.3 | 0.00 | 0.18 | 0.18 | 71 | 1006.6 |
| 20260508230044 | 24 | 154 | 8.0 | 17.7 | 0.00 | 0.18 | 0.18 | 68 | 1006.8 |